sensor_id;sensor_type;location;lat;lon;timestamp;P1;durP1;ratioP1;P2;durP2;ratioP2
19016;SDS011;9641;51.494;6.670;2022-11-25T00:01:41;9.53;;;2.30;;
19016;SDS011;9641;51.494;6.670;2022-11-25T00:04:08;11.87;;;3.00;;
19016;SDS011;9641;51.494;6.670;2022-11-25T00:06:35;14.20;;;2.60;;
19016;SDS011;9641;51.494;6.670;2022-11-25T00:09:02;11.13;;;2.63;;
19016;SDS011;9641;51.494;6.670;2022-11-25T00:11:32;9.13;;;2.37;;
19016;SDS011;9641;51.494;6.670;2022-11-25T00:14:00;9.10;;;2.63;;
19016;SDS011;9641;51.494;6.670;2022-11-25T00:16:29;9.40;;;2.50;;
19016;SDS011;9641;51.494;6.670;2022-11-25T00:18:56;17.30;;;2.70;;
19016;SDS011;9641;51.494;6.670;2022-11-25T00:21:23;9.23;;;3.17;;
19016;SDS011;9641;51.494;6.670;2022-11-25T00:23:53;7.27;;;2.67;;
19016;SDS011;9641;51.494;6.670;2022-11-25T00:26:21;9.40;;;2.80;;
19016;SDS011;9641;51.494;6.670;2022-11-25T00:28:49;9.97;;;2.83;;
19016;SDS011;9641;51.494;6.670;2022-11-25T00:31:17;10.33;;;2.33;;
19016;SDS011;9641;51.494;6.670;2022-11-25T00:33:47;11.80;;;2.30;;
19016;SDS011;9641;51.494;6.670;2022-11-25T00:36:15;10.57;;;2.87;;
19016;SDS011;9641;51.494;6.670;2022-11-25T00:38:44;9.17;;;2.70;;
19016;SDS011;9641;51.494;6.670;2022-11-25T00:41:12;7.97;;;2.63;;
19016;SDS011;9641;51.494;6.670;2022-11-25T00:43:56;8.70;;;2.20;;
19016;SDS011;9641;51.494;6.670;2022-11-25T00:46:41;11.57;;;3.37;;
19016;SDS011;9641;51.494;6.670;2022-11-25T00:49:09;12.70;;;2.80;;
19016;SDS011;9641;51.494;6.670;2022-11-25T00:51:36;6.20;;;1.90;;
19016;SDS011;9641;51.494;6.670;2022-11-25T00:54:03;9.87;;;2.43;;
19016;SDS011;9641;51.494;6.670;2022-11-25T00:56:30;6.63;;;2.10;;
19016;SDS011;9641;51.494;6.670;2022-11-25T00:58:57;11.90;;;2.60;;
19016;SDS011;9641;51.494;6.670;2022-11-25T01:01:25;14.57;;;2.40;;
19016;SDS011;9641;51.494;6.670;2022-11-25T01:03:52;6.13;;;2.53;;
19016;SDS011;9641;51.494;6.670;2022-11-25T01:06:20;4.97;;;2.20;;
19016;SDS011;9641;51.494;6.670;2022-11-25T01:08:48;10.60;;;2.30;;
19016;SDS011;9641;51.494;6.670;2022-11-25T01:11:17;10.00;;;2.97;;
19016;SDS011;9641;51.494;6.670;2022-11-25T01:13:45;9.43;;;2.30;;
19016;SDS011;9641;51.494;6.670;2022-11-25T01:16:12;12.57;;;2.50;;
19016;SDS011;9641;51.494;6.670;2022-11-25T01:18:41;13.27;;;2.30;;
19016;SDS011;9641;51.494;6.670;2022-11-25T01:21:09;11.10;;;3.27;;
19016;SDS011;9641;51.494;6.670;2022-11-25T01:23:39;12.03;;;3.10;;
19016;SDS011;9641;51.494;6.670;2022-11-25T01:26:07;5.80;;;2.20;;
19016;SDS011;9641;51.494;6.670;2022-11-25T01:28:36;12.97;;;2.40;;
19016;SDS011;9641;51.494;6.670;2022-11-25T01:31:05;12.97;;;3.20;;
19016;SDS011;9641;51.494;6.670;2022-11-25T01:33:33;11.03;;;2.47;;
19016;SDS011;9641;51.494;6.670;2022-11-25T01:36:01;11.00;;;3.07;;
19016;SDS011;9641;51.494;6.670;2022-11-25T01:38:29;11.13;;;2.73;;
19016;SDS011;9641;51.494;6.670;2022-11-25T01:40:58;12.30;;;2.77;;
19016;SDS011;9641;51.494;6.670;2022-11-25T01:43:26;13.33;;;2.60;;
19016;SDS011;9641;51.494;6.670;2022-11-25T01:45:54;12.10;;;3.30;;
19016;SDS011;9641;51.494;6.670;2022-11-25T01:48:25;12.10;;;2.33;;
19016;SDS011;9641;51.494;6.670;2022-11-25T01:50:58;13.70;;;2.53;;
19016;SDS011;9641;51.494;6.670;2022-11-25T01:53:25;11.27;;;2.40;;
19016;SDS011;9641;51.494;6.670;2022-11-25T01:55:57;6.80;;;2.20;;
19016;SDS011;9641;51.494;6.670;2022-11-25T01:58:29;9.80;;;2.47;;
19016;SDS011;9641;51.494;6.670;2022-11-25T02:00:58;11.07;;;2.33;;
19016;SDS011;9641;51.494;6.670;2022-11-25T02:03:30;10.70;;;2.63;;
19016;SDS011;9641;51.494;6.670;2022-11-25T02:06:02;12.03;;;2.43;;
19016;SDS011;9641;51.494;6.670;2022-11-25T02:08:32;8.37;;;2.37;;
19016;SDS011;9641;51.494;6.670;2022-11-25T02:11:01;7.40;;;2.47;;
19016;SDS011;9641;51.494;6.670;2022-11-25T02:13:28;14.27;;;2.50;;
19016;SDS011;9641;51.494;6.670;2022-11-25T02:15:58;8.83;;;2.90;;
19016;SDS011;9641;51.494;6.670;2022-11-25T02:18:25;9.20;;;2.37;;
19016;SDS011;9641;51.494;6.670;2022-11-25T02:20:53;8.63;;;3.20;;
19016;SDS011;9641;51.494;6.670;2022-11-25T02:23:24;8.83;;;2.40;;
19016;SDS011;9641;51.494;6.670;2022-11-25T02:26:09;7.97;;;2.33;;
19016;SDS011;9641;51.494;6.670;2022-11-25T02:28:37;10.13;;;2.77;;
19016;SDS011;9641;51.494;6.670;2022-11-25T02:31:05;10.10;;;2.67;;
19016;SDS011;9641;51.494;6.670;2022-11-25T02:33:34;10.07;;;2.77;;
19016;SDS011;9641;51.494;6.670;2022-11-25T02:36:02;11.57;;;3.03;;
19016;SDS011;9641;51.494;6.670;2022-11-25T02:38:35;13.90;;;2.93;;
19016;SDS011;9641;51.494;6.670;2022-11-25T02:41:07;11.63;;;2.80;;
19016;SDS011;9641;51.494;6.670;2022-11-25T02:43:39;7.70;;;2.43;;
19016;SDS011;9641;51.494;6.670;2022-11-25T02:46:07;12.17;;;2.67;;
19016;SDS011;9641;51.494;6.670;2022-11-25T02:48:36;19.47;;;3.17;;
19016;SDS011;9641;51.494;6.670;2022-11-25T02:51:06;13.37;;;2.97;;
19016;SDS011;9641;51.494;6.670;2022-11-25T02:53:34;11.93;;;3.00;;
19016;SDS011;9641;51.494;6.670;2022-11-25T02:56:01;14.03;;;3.77;;
19016;SDS011;9641;51.494;6.670;2022-11-25T02:58:30;14.23;;;3.37;;
19016;SDS011;9641;51.494;6.670;2022-11-25T03:00:56;9.00;;;3.50;;
19016;SDS011;9641;51.494;6.670;2022-11-25T03:03:23;20.80;;;3.53;;
19016;SDS011;9641;51.494;6.670;2022-11-25T03:05:50;16.73;;;3.37;;
19016;SDS011;9641;51.494;6.670;2022-11-25T03:08:17;10.90;;;2.83;;
19016;SDS011;9641;51.494;6.670;2022-11-25T03:10:44;6.87;;;2.83;;
19016;SDS011;9641;51.494;6.670;2022-11-25T03:13:11;7.57;;;2.87;;
19016;SDS011;9641;51.494;6.670;2022-11-25T03:15:40;8.43;;;2.43;;
19016;SDS011;9641;51.494;6.670;2022-11-25T03:18:06;9.47;;;3.07;;
19016;SDS011;9641;51.494;6.670;2022-11-25T03:20:35;13.50;;;3.30;;
19016;SDS011;9641;51.494;6.670;2022-11-25T03:23:02;11.70;;;3.17;;
19016;SDS011;9641;51.494;6.670;2022-11-25T03:25:30;6.67;;;2.90;;
19016;SDS011;9641;51.494;6.670;2022-11-25T03:27:57;12.57;;;4.23;;
19016;SDS011;9641;51.494;6.670;2022-11-25T03:30:24;12.53;;;4.03;;
19016;SDS011;9641;51.494;6.670;2022-11-25T03:32:58;19.23;;;4.80;;
19016;SDS011;9641;51.494;6.670;2022-11-25T03:35:25;16.17;;;4.93;;
19016;SDS011;9641;51.494;6.670;2022-11-25T03:37:52;14.23;;;4.37;;
19016;SDS011;9641;51.494;6.670;2022-11-25T03:40:19;13.60;;;3.70;;
19016;SDS011;9641;51.494;6.670;2022-11-25T03:42:48;11.10;;;3.17;;
19016;SDS011;9641;51.494;6.670;2022-11-25T03:45:15;5.20;;;2.50;;
19016;SDS011;9641;51.494;6.670;2022-11-25T03:47:44;5.67;;;2.33;;
19016;SDS011;9641;51.494;6.670;2022-11-25T03:50:13;10.37;;;3.00;;
19016;SDS011;9641;51.494;6.670;2022-11-25T03:52:42;7.20;;;3.07;;
19016;SDS011;9641;51.494;6.670;2022-11-25T03:55:09;12.20;;;2.70;;
19016;SDS011;9641;51.494;6.670;2022-11-25T03:57:40;7.60;;;2.43;;
19016;SDS011;9641;51.494;6.670;2022-11-25T04:00:07;9.40;;;2.80;;
19016;SDS011;9641;51.494;6.670;2022-11-25T04:02:48;13.30;;;2.77;;
19016;SDS011;9641;51.494;6.670;2022-11-25T04:05:18;15.57;;;2.90;;
19016;SDS011;9641;51.494;6.670;2022-11-25T04:07:47;9.73;;;2.80;;
19016;SDS011;9641;51.494;6.670;2022-11-25T04:10:14;11.50;;;2.73;;
19016;SDS011;9641;51.494;6.670;2022-11-25T04:12:41;6.03;;;2.43;;
19016;SDS011;9641;51.494;6.670;2022-11-25T04:15:24;5.93;;;2.60;;
19016;SDS011;9641;51.494;6.670;2022-11-25T04:17:55;14.17;;;3.67;;
19016;SDS011;9641;51.494;6.670;2022-11-25T04:20:24;12.20;;;3.43;;
19016;SDS011;9641;51.494;6.670;2022-11-25T04:22:58;13.00;;;4.00;;
19016;SDS011;9641;51.494;6.670;2022-11-25T04:25:25;12.50;;;3.63;;
19016;SDS011;9641;51.494;6.670;2022-11-25T04:27:53;7.77;;;3.43;;
19016;SDS011;9641;51.494;6.670;2022-11-25T04:30:26;14.07;;;3.43;;
19016;SDS011;9641;51.494;6.670;2022-11-25T04:32:54;14.83;;;3.43;;
19016;SDS011;9641;51.494;6.670;2022-11-25T04:35:21;15.17;;;3.27;;
19016;SDS011;9641;51.494;6.670;2022-11-25T04:37:53;16.27;;;3.27;;
19016;SDS011;9641;51.494;6.670;2022-11-25T04:40:21;14.13;;;4.10;;
19016;SDS011;9641;51.494;6.670;2022-11-25T04:42:56;11.00;;;3.10;;
19016;SDS011;9641;51.494;6.670;2022-11-25T04:45:23;11.50;;;3.93;;
19016;SDS011;9641;51.494;6.670;2022-11-25T04:47:52;13.57;;;3.60;;
19016;SDS011;9641;51.494;6.670;2022-11-25T04:50:21;12.53;;;3.80;;
19016;SDS011;9641;51.494;6.670;2022-11-25T04:53:09;14.23;;;4.40;;
19016;SDS011;9641;51.494;6.670;2022-11-25T04:55:38;12.10;;;4.50;;
19016;SDS011;9641;51.494;6.670;2022-11-25T04:58:10;13.63;;;5.60;;
19016;SDS011;9641;51.494;6.670;2022-11-25T05:00:39;11.90;;;4.60;;
19016;SDS011;9641;51.494;6.670;2022-11-25T05:03:06;14.20;;;4.67;;
19016;SDS011;9641;51.494;6.670;2022-11-25T05:05:36;10.83;;;4.47;;
19016;SDS011;9641;51.494;6.670;2022-11-25T05:08:04;26.40;;;4.63;;
19016;SDS011;9641;51.494;6.670;2022-11-25T05:10:33;13.30;;;4.50;;
19016;SDS011;9641;51.494;6.670;2022-11-25T05:12:59;10.50;;;4.30;;
19016;SDS011;9641;51.494;6.670;2022-11-25T05:15:26;18.20;;;4.57;;
19016;SDS011;9641;51.494;6.670;2022-11-25T05:17:53;11.37;;;4.17;;
19016;SDS011;9641;51.494;6.670;2022-11-25T05:20:38;14.10;;;4.03;;
19016;SDS011;9641;51.494;6.670;2022-11-25T05:23:06;17.33;;;4.87;;
19016;SDS011;9641;51.494;6.670;2022-11-25T05:25:35;12.73;;;3.37;;
19016;SDS011;9641;51.494;6.670;2022-11-25T05:28:23;18.67;;;4.07;;
19016;SDS011;9641;51.494;6.670;2022-11-25T05:30:50;11.70;;;3.60;;
19016;SDS011;9641;51.494;6.670;2022-11-25T05:33:18;16.70;;;3.60;;
19016;SDS011;9641;51.494;6.670;2022-11-25T05:35:52;10.57;;;3.40;;
19016;SDS011;9641;51.494;6.670;2022-11-25T05:38:20;21.10;;;4.00;;
19016;SDS011;9641;51.494;6.670;2022-11-25T05:40:48;8.67;;;3.73;;
19016;SDS011;9641;51.494;6.670;2022-11-25T05:43:16;17.77;;;3.97;;
19016;SDS011;9641;51.494;6.670;2022-11-25T05:45:43;19.73;;;3.80;;
19016;SDS011;9641;51.494;6.670;2022-11-25T05:48:12;15.97;;;4.00;;
19016;SDS011;9641;51.494;6.670;2022-11-25T05:50:40;13.70;;;4.17;;
19016;SDS011;9641;51.494;6.670;2022-11-25T05:53:16;13.50;;;3.87;;
19016;SDS011;9641;51.494;6.670;2022-11-25T05:55:53;27.60;;;4.60;;
19016;SDS011;9641;51.494;6.670;2022-11-25T05:58:39;15.23;;;3.90;;
19016;SDS011;9641;51.494;6.670;2022-11-25T06:01:08;15.57;;;4.03;;
19016;SDS011;9641;51.494;6.670;2022-11-25T06:03:35;13.33;;;4.27;;
19016;SDS011;9641;51.494;6.670;2022-11-25T06:06:03;13.17;;;4.63;;
19016;SDS011;9641;51.494;6.670;2022-11-25T06:08:33;23.20;;;5.60;;
19016;SDS011;9641;51.494;6.670;2022-11-25T06:11:04;14.13;;;4.80;;
19016;SDS011;9641;51.494;6.670;2022-11-25T06:13:31;12.40;;;4.50;;
19016;SDS011;9641;51.494;6.670;2022-11-25T06:15:59;12.50;;;4.50;;
19016;SDS011;9641;51.494;6.670;2022-11-25T06:18:31;11.00;;;4.57;;
19016;SDS011;9641;51.494;6.670;2022-11-25T06:20:58;17.90;;;4.90;;
19016;SDS011;9641;51.494;6.670;2022-11-25T06:23:26;14.63;;;5.87;;
19016;SDS011;9641;51.494;6.670;2022-11-25T06:25:53;11.67;;;3.87;;
19016;SDS011;9641;51.494;6.670;2022-11-25T06:28:24;17.27;;;5.30;;
19016;SDS011;9641;51.494;6.670;2022-11-25T06:30:50;10.90;;;4.30;;
19016;SDS011;9641;51.494;6.670;2022-11-25T06:33:31;15.57;;;5.13;;
19016;SDS011;9641;51.494;6.670;2022-11-25T06:36:01;7.43;;;3.90;;
19016;SDS011;9641;51.494;6.670;2022-11-25T06:38:29;10.70;;;5.10;;
19016;SDS011;9641;51.494;6.670;2022-11-25T06:40:58;17.03;;;5.70;;
19016;SDS011;9641;51.494;6.670;2022-11-25T06:43:27;15.60;;;4.70;;
19016;SDS011;9641;51.494;6.670;2022-11-25T06:45:53;17.60;;;5.13;;
19016;SDS011;9641;51.494;6.670;2022-11-25T06:48:20;14.60;;;5.07;;
19016;SDS011;9641;51.494;6.670;2022-11-25T06:50:54;16.43;;;5.20;;
19016;SDS011;9641;51.494;6.670;2022-11-25T06:53:22;15.70;;;5.03;;
19016;SDS011;9641;51.494;6.670;2022-11-25T06:56:00;17.63;;;5.50;;
19016;SDS011;9641;51.494;6.670;2022-11-25T06:58:28;12.10;;;5.43;;
19016;SDS011;9641;51.494;6.670;2022-11-25T07:00:59;13.80;;;5.60;;
19016;SDS011;9641;51.494;6.670;2022-11-25T07:03:27;11.57;;;5.50;;
19016;SDS011;9641;51.494;6.670;2022-11-25T07:05:54;15.33;;;5.77;;
19016;SDS011;9641;51.494;6.670;2022-11-25T07:08:22;22.83;;;6.70;;
19016;SDS011;9641;51.494;6.670;2022-11-25T07:10:49;15.13;;;5.37;;
19016;SDS011;9641;51.494;6.670;2022-11-25T07:13:17;20.13;;;5.77;;
19016;SDS011;9641;51.494;6.670;2022-11-25T07:15:46;18.60;;;5.93;;
19016;SDS011;9641;51.494;6.670;2022-11-25T07:18:13;17.07;;;6.07;;
19016;SDS011;9641;51.494;6.670;2022-11-25T07:20:40;18.03;;;4.97;;
19016;SDS011;9641;51.494;6.670;2022-11-25T07:23:08;15.47;;;6.13;;
19016;SDS011;9641;51.494;6.670;2022-11-25T07:25:35;21.23;;;5.30;;
19016;SDS011;9641;51.494;6.670;2022-11-25T07:28:01;13.37;;;5.17;;
19016;SDS011;9641;51.494;6.670;2022-11-25T07:30:28;15.67;;;4.97;;
19016;SDS011;9641;51.494;6.670;2022-11-25T07:32:57;16.30;;;5.10;;
19016;SDS011;9641;51.494;6.670;2022-11-25T07:35:23;13.73;;;5.33;;
19016;SDS011;9641;51.494;6.670;2022-11-25T07:37:50;20.60;;;5.37;;
19016;SDS011;9641;51.494;6.670;2022-11-25T07:40:17;17.27;;;4.93;;
19016;SDS011;9641;51.494;6.670;2022-11-25T07:42:44;20.47;;;5.63;;
19016;SDS011;9641;51.494;6.670;2022-11-25T07:45:11;15.17;;;5.43;;
19016;SDS011;9641;51.494;6.670;2022-11-25T07:47:40;15.23;;;4.60;;
19016;SDS011;9641;51.494;6.670;2022-11-25T07:50:09;18.77;;;5.57;;
19016;SDS011;9641;51.494;6.670;2022-11-25T07:52:36;11.20;;;4.93;;
19016;SDS011;9641;51.494;6.670;2022-11-25T07:55:04;15.33;;;5.17;;
19016;SDS011;9641;51.494;6.670;2022-11-25T07:57:31;11.37;;;5.30;;
19016;SDS011;9641;51.494;6.670;2022-11-25T07:59:58;20.87;;;5.80;;
19016;SDS011;9641;51.494;6.670;2022-11-25T08:02:25;18.73;;;5.57;;
19016;SDS011;9641;51.494;6.670;2022-11-25T08:04:52;13.97;;;5.17;;
19016;SDS011;9641;51.494;6.670;2022-11-25T08:07:20;16.10;;;4.43;;
19016;SDS011;9641;51.494;6.670;2022-11-25T08:09:47;16.40;;;5.50;;
19016;SDS011;9641;51.494;6.670;2022-11-25T08:12:15;14.70;;;4.77;;
19016;SDS011;9641;51.494;6.670;2022-11-25T08:14:42;12.33;;;5.13;;
19016;SDS011;9641;51.494;6.670;2022-11-25T08:17:09;14.80;;;5.87;;
19016;SDS011;9641;51.494;6.670;2022-11-25T08:19:36;18.87;;;5.30;;
19016;SDS011;9641;51.494;6.670;2022-11-25T08:22:04;20.63;;;6.60;;
19016;SDS011;9641;51.494;6.670;2022-11-25T08:24:32;15.40;;;6.20;;
19016;SDS011;9641;51.494;6.670;2022-11-25T08:26:59;17.27;;;6.07;;
19016;SDS011;9641;51.494;6.670;2022-11-25T08:29:26;21.97;;;6.83;;
19016;SDS011;9641;51.494;6.670;2022-11-25T08:31:53;16.27;;;6.10;;
19016;SDS011;9641;51.494;6.670;2022-11-25T08:34:21;16.90;;;6.90;;
19016;SDS011;9641;51.494;6.670;2022-11-25T08:36:53;18.27;;;6.10;;
19016;SDS011;9641;51.494;6.670;2022-11-25T08:39:20;17.60;;;4.93;;
19016;SDS011;9641;51.494;6.670;2022-11-25T08:41:55;11.73;;;5.27;;
19016;SDS011;9641;51.494;6.670;2022-11-25T08:44:22;13.40;;;5.33;;
19016;SDS011;9641;51.494;6.670;2022-11-25T08:46:52;20.37;;;4.60;;
19016;SDS011;9641;51.494;6.670;2022-11-25T08:49:19;15.70;;;5.17;;
19016;SDS011;9641;51.494;6.670;2022-11-25T08:51:46;15.33;;;4.53;;
19016;SDS011;9641;51.494;6.670;2022-11-25T08:54:13;13.27;;;4.73;;
19016;SDS011;9641;51.494;6.670;2022-11-25T08:56:40;15.00;;;4.37;;
19016;SDS011;9641;51.494;6.670;2022-11-25T08:59:09;19.50;;;4.60;;
19016;SDS011;9641;51.494;6.670;2022-11-25T09:01:37;14.10;;;4.23;;
19016;SDS011;9641;51.494;6.670;2022-11-25T09:04:04;16.57;;;4.77;;
19016;SDS011;9641;51.494;6.670;2022-11-25T09:06:31;7.30;;;3.57;;
19016;SDS011;9641;51.494;6.670;2022-11-25T09:08:57;8.83;;;3.50;;
19016;SDS011;9641;51.494;6.670;2022-11-25T09:11:25;11.60;;;4.10;;
19016;SDS011;9641;51.494;6.670;2022-11-25T09:13:53;11.97;;;3.70;;
19016;SDS011;9641;51.494;6.670;2022-11-25T09:16:21;13.70;;;3.47;;
19016;SDS011;9641;51.494;6.670;2022-11-25T09:18:48;12.33;;;3.40;;
19016;SDS011;9641;51.494;6.670;2022-11-25T09:21:16;6.47;;;3.30;;
19016;SDS011;9641;51.494;6.670;2022-11-25T09:23:44;10.10;;;3.90;;
19016;SDS011;9641;51.494;6.670;2022-11-25T09:26:16;12.53;;;3.43;;
19016;SDS011;9641;51.494;6.670;2022-11-25T09:28:46;13.47;;;3.27;;
19016;SDS011;9641;51.494;6.670;2022-11-25T09:31:14;4.20;;;2.87;;
19016;SDS011;9641;51.494;6.670;2022-11-25T09:33:43;9.90;;;3.57;;
19016;SDS011;9641;51.494;6.670;2022-11-25T09:36:11;9.17;;;3.13;;
19016;SDS011;9641;51.494;6.670;2022-11-25T09:38:38;10.00;;;3.23;;
19016;SDS011;9641;51.494;6.670;2022-11-25T09:41:09;11.40;;;3.43;;
19016;SDS011;9641;51.494;6.670;2022-11-25T09:44:06;11.47;;;3.57;;
19016;SDS011;9641;51.494;6.670;2022-11-25T09:47:02;9.80;;;3.03;;
19016;SDS011;9641;51.494;6.670;2022-11-25T09:49:52;9.30;;;3.03;;
19016;SDS011;9641;51.494;6.670;2022-11-25T09:52:29;7.60;;;2.93;;
19016;SDS011;9641;51.494;6.670;2022-11-25T09:55:06;10.57;;;2.87;;
19016;SDS011;9641;51.494;6.670;2022-11-25T09:57:43;9.27;;;2.47;;
19016;SDS011;9641;51.494;6.670;2022-11-25T10:00:21;8.57;;;2.77;;
19016;SDS011;9641;51.494;6.670;2022-11-25T10:02:51;11.53;;;2.60;;
19016;SDS011;9641;51.494;6.670;2022-11-25T10:05:33;8.53;;;2.60;;
19016;SDS011;9641;51.494;6.670;2022-11-25T10:08:07;11.77;;;2.87;;
19016;SDS011;9641;51.494;6.670;2022-11-25T10:10:38;9.87;;;2.67;;
19016;SDS011;9641;51.494;6.670;2022-11-25T10:13:11;10.97;;;2.77;;
19016;SDS011;9641;51.494;6.670;2022-11-25T10:15:45;5.70;;;2.87;;
19016;SDS011;9641;51.494;6.670;2022-11-25T10:18:15;7.57;;;3.33;;
19016;SDS011;9641;51.494;6.670;2022-11-25T10:20:48;10.63;;;3.37;;
19016;SDS011;9641;51.494;6.670;2022-11-25T10:23:18;12.03;;;2.80;;
19016;SDS011;9641;51.494;6.670;2022-11-25T10:25:50;8.13;;;2.70;;
19016;SDS011;9641;51.494;6.670;2022-11-25T10:28:21;7.03;;;3.03;;
19016;SDS011;9641;51.494;6.670;2022-11-25T10:30:49;7.50;;;2.80;;
19016;SDS011;9641;51.494;6.670;2022-11-25T10:33:24;6.03;;;2.70;;
19016;SDS011;9641;51.494;6.670;2022-11-25T10:35:55;12.60;;;2.93;;
19016;SDS011;9641;51.494;6.670;2022-11-25T10:38:25;9.17;;;3.00;;
19016;SDS011;9641;51.494;6.670;2022-11-25T10:40:56;10.73;;;2.77;;
19016;SDS011;9641;51.494;6.670;2022-11-25T10:43:23;11.90;;;2.50;;
19016;SDS011;9641;51.494;6.670;2022-11-25T10:45:53;3.87;;;1.90;;
19016;SDS011;9641;51.494;6.670;2022-11-25T10:48:41;7.20;;;2.40;;
19016;SDS011;9641;51.494;6.670;2022-11-25T10:51:20;5.40;;;2.10;;
19016;SDS011;9641;51.494;6.670;2022-11-25T10:54:10;6.00;;;2.30;;
19016;SDS011;9641;51.494;6.670;2022-11-25T10:56:50;9.40;;;2.13;;
19016;SDS011;9641;51.494;6.670;2022-11-25T10:59:22;9.73;;;2.30;;
19016;SDS011;9641;51.494;6.670;2022-11-25T11:01:51;6.67;;;1.97;;
19016;SDS011;9641;51.494;6.670;2022-11-25T11:04:19;9.27;;;2.00;;
19016;SDS011;9641;51.494;6.670;2022-11-25T11:06:48;6.43;;;2.17;;
19016;SDS011;9641;51.494;6.670;2022-11-25T11:12:12;6.00;;;2.30;;
19016;SDS011;9641;51.494;6.670;2022-11-25T11:14:42;10.23;;;1.90;;
19016;SDS011;9641;51.494;6.670;2022-11-25T11:17:20;5.93;;;2.10;;
19016;SDS011;9641;51.494;6.670;2022-11-25T11:19:59;7.47;;;1.97;;
19016;SDS011;9641;51.494;6.670;2022-11-25T11:22:45;7.87;;;2.23;;
19016;SDS011;9641;51.494;6.670;2022-11-25T11:25:23;10.03;;;2.40;;
19016;SDS011;9641;51.494;6.670;2022-11-25T11:27:53;7.20;;;2.10;;
19016;SDS011;9641;51.494;6.670;2022-11-25T11:30:21;14.23;;;2.90;;
19016;SDS011;9641;51.494;6.670;2022-11-25T11:32:53;10.73;;;1.77;;
19016;SDS011;9641;51.494;6.670;2022-11-25T11:35:24;4.73;;;1.80;;
19016;SDS011;9641;51.494;6.670;2022-11-25T11:38:07;8.03;;;2.50;;
19016;SDS011;9641;51.494;6.670;2022-11-25T11:40:47;5.13;;;1.67;;
19016;SDS011;9641;51.494;6.670;2022-11-25T11:43:21;10.17;;;2.20;;
19016;SDS011;9641;51.494;6.670;2022-11-25T11:46:12;6.63;;;2.20;;
19016;SDS011;9641;51.494;6.670;2022-11-25T11:48:48;6.57;;;2.50;;
19016;SDS011;9641;51.494;6.670;2022-11-25T11:51:26;8.80;;;2.00;;
19016;SDS011;9641;51.494;6.670;2022-11-25T11:54:02;5.90;;;2.07;;
19016;SDS011;9641;51.494;6.670;2022-11-25T11:56:34;8.47;;;2.07;;
19016;SDS011;9641;51.494;6.670;2022-11-25T11:59:10;5.70;;;1.83;;
19016;SDS011;9641;51.494;6.670;2022-11-25T12:02:05;6.93;;;1.63;;
19016;SDS011;9641;51.494;6.670;2022-11-25T12:04:55;7.10;;;2.43;;
19016;SDS011;9641;51.494;6.670;2022-11-25T12:07:29;9.90;;;2.13;;
19016;SDS011;9641;51.494;6.670;2022-11-25T12:10:04;5.20;;;1.90;;
19016;SDS011;9641;51.494;6.670;2022-11-25T12:12:37;6.90;;;1.83;;
19016;SDS011;9641;51.494;6.670;2022-11-25T12:15:10;8.53;;;2.10;;
19016;SDS011;9641;51.494;6.670;2022-11-25T12:17:43;8.13;;;2.20;;
19016;SDS011;9641;51.494;6.670;2022-11-25T12:20:15;7.33;;;1.90;;
19016;SDS011;9641;51.494;6.670;2022-11-25T12:22:48;5.20;;;1.97;;
19016;SDS011;9641;51.494;6.670;2022-11-25T12:25:23;6.83;;;1.67;;
19016;SDS011;9641;51.494;6.670;2022-11-25T12:27:56;8.40;;;2.73;;
19016;SDS011;9641;51.494;6.670;2022-11-25T12:30:27;9.27;;;2.07;;
19016;SDS011;9641;51.494;6.670;2022-11-25T12:33:02;11.07;;;2.40;;
19016;SDS011;9641;51.494;6.670;2022-11-25T12:35:37;7.07;;;1.77;;
19016;SDS011;9641;51.494;6.670;2022-11-25T12:38:14;5.83;;;2.10;;
19016;SDS011;9641;51.494;6.670;2022-11-25T12:40:52;9.37;;;1.93;;
19016;SDS011;9641;51.494;6.670;2022-11-25T12:43:27;10.47;;;1.87;;
19016;SDS011;9641;51.494;6.670;2022-11-25T12:46:10;4.93;;;1.63;;
19016;SDS011;9641;51.494;6.670;2022-11-25T12:48:43;8.20;;;2.03;;
19016;SDS011;9641;51.494;6.670;2022-11-25T12:51:15;5.70;;;1.70;;
19016;SDS011;9641;51.494;6.670;2022-11-25T12:53:56;6.70;;;1.80;;
19016;SDS011;9641;51.494;6.670;2022-11-25T12:56:37;6.30;;;1.63;;
19016;SDS011;9641;51.494;6.670;2022-11-25T12:59:22;12.30;;;2.73;;
19016;SDS011;9641;51.494;6.670;2022-11-25T13:02:10;6.93;;;1.83;;
19016;SDS011;9641;51.494;6.670;2022-11-25T13:07:39;10.07;;;2.10;;
19016;SDS011;9641;51.494;6.670;2022-11-25T13:13:29;6.83;;;1.93;;
19016;SDS011;9641;51.494;6.670;2022-11-25T13:16:04;6.13;;;2.20;;
19016;SDS011;9641;51.494;6.670;2022-11-25T13:18:33;10.80;;;3.20;;
19016;SDS011;9641;51.494;6.670;2022-11-25T13:21:05;13.13;;;3.10;;
19016;SDS011;9641;51.494;6.670;2022-11-25T13:23:44;8.03;;;3.37;;
19016;SDS011;9641;51.494;6.670;2022-11-25T13:32:30;11.30;;;2.63;;
19016;SDS011;9641;51.494;6.670;2022-11-25T13:38:05;7.73;;;2.40;;
19016;SDS011;9641;51.494;6.670;2022-11-25T13:40:35;6.20;;;2.27;;
19016;SDS011;9641;51.494;6.670;2022-11-25T13:43:03;6.93;;;1.90;;
19016;SDS011;9641;51.494;6.670;2022-11-25T13:45:31;7.80;;;2.20;;
19016;SDS011;9641;51.494;6.670;2022-11-25T13:48:04;9.53;;;2.67;;
19016;SDS011;9641;51.494;6.670;2022-11-25T13:50:37;7.67;;;2.37;;
19016;SDS011;9641;51.494;6.670;2022-11-25T13:53:05;8.20;;;2.07;;
19016;SDS011;9641;51.494;6.670;2022-11-25T13:55:43;11.03;;;2.40;;
19016;SDS011;9641;51.494;6.670;2022-11-25T13:58:18;5.53;;;2.13;;
19016;SDS011;9641;51.494;6.670;2022-11-25T14:00:59;8.60;;;2.53;;
19016;SDS011;9641;51.494;6.670;2022-11-25T14:03:49;6.97;;;2.33;;
19016;SDS011;9641;51.494;6.670;2022-11-25T14:06:22;8.27;;;2.20;;
19016;SDS011;9641;51.494;6.670;2022-11-25T14:09:27;9.57;;;2.03;;
19016;SDS011;9641;51.494;6.670;2022-11-25T14:15:03;6.13;;;2.07;;
19016;SDS011;9641;51.494;6.670;2022-11-25T14:17:55;8.60;;;2.53;;
19016;SDS011;9641;51.494;6.670;2022-11-25T14:20:47;8.43;;;2.03;;
19016;SDS011;9641;51.494;6.670;2022-11-25T14:23:27;9.50;;;1.80;;
19016;SDS011;9641;51.494;6.670;2022-11-25T14:26:07;7.80;;;2.27;;
19016;SDS011;9641;51.494;6.670;2022-11-25T14:28:39;6.90;;;2.57;;
19016;SDS011;9641;51.494;6.670;2022-11-25T14:31:12;7.17;;;2.57;;
19016;SDS011;9641;51.494;6.670;2022-11-25T14:33:43;6.77;;;2.17;;
19016;SDS011;9641;51.494;6.670;2022-11-25T14:36:18;11.77;;;3.33;;
19016;SDS011;9641;51.494;6.670;2022-11-25T14:38:48;3.87;;;1.60;;
19016;SDS011;9641;51.494;6.670;2022-11-25T14:41:21;9.23;;;2.13;;
19016;SDS011;9641;51.494;6.670;2022-11-25T14:43:51;7.53;;;2.77;;
19016;SDS011;9641;51.494;6.670;2022-11-25T14:46:22;9.17;;;2.40;;
19016;SDS011;9641;51.494;6.670;2022-11-25T14:48:54;8.90;;;2.30;;
19016;SDS011;9641;51.494;6.670;2022-11-25T14:51:24;12.10;;;2.17;;
19016;SDS011;9641;51.494;6.670;2022-11-25T14:53:52;11.80;;;2.77;;
19016;SDS011;9641;51.494;6.670;2022-11-25T14:56:22;8.63;;;2.63;;
19016;SDS011;9641;51.494;6.670;2022-11-25T14:58:52;10.30;;;3.17;;
19016;SDS011;9641;51.494;6.670;2022-11-25T15:01:21;7.40;;;2.20;;
19016;SDS011;9641;51.494;6.670;2022-11-25T15:03:50;7.63;;;2.33;;
19016;SDS011;9641;51.494;6.670;2022-11-25T15:06:31;6.27;;;2.03;;
19016;SDS011;9641;51.494;6.670;2022-11-25T15:08:59;12.37;;;2.57;;
19016;SDS011;9641;51.494;6.670;2022-11-25T15:11:26;7.60;;;2.67;;
19016;SDS011;9641;51.494;6.670;2022-11-25T15:13:57;8.70;;;2.60;;
19016;SDS011;9641;51.494;6.670;2022-11-25T15:16:29;9.40;;;2.87;;
19016;SDS011;9641;51.494;6.670;2022-11-25T15:18:59;10.10;;;2.50;;
19016;SDS011;9641;51.494;6.670;2022-11-25T15:21:30;9.63;;;2.70;;
19016;SDS011;9641;51.494;6.670;2022-11-25T15:24:00;14.13;;;3.33;;
19016;SDS011;9641;51.494;6.670;2022-11-25T15:26:28;8.10;;;2.57;;
19016;SDS011;9641;51.494;6.670;2022-11-25T15:28:58;8.07;;;3.40;;
19016;SDS011;9641;51.494;6.670;2022-11-25T15:31:27;6.10;;;2.00;;
19016;SDS011;9641;51.494;6.670;2022-11-25T15:33:56;11.50;;;5.00;;
19016;SDS011;9641;51.494;6.670;2022-11-25T15:36:25;11.60;;;4.10;;
19016;SDS011;9641;51.494;6.670;2022-11-25T15:39:01;10.67;;;3.43;;